Time;durP1;ratioP1;P1;durP2;ratioP2;P2;SDS_P1;SDS_P2;PMS_P1;PMS_P2;Temp;Humidity;BMP_temperature;BMP_pressure;BME280_temperature;BME280_humidity;BME280_pressure;Samples;Min_cycle;Max_cycle;Signal;HPM_P1;HPM_P2
2023/02/07 00:00:00;;;;;;;;;;;;;;;-1.73;97.00;103283.97;4904925;29;19965;-65
2023/02/07 00:02:25;;;;;;;;;;;;;;;-1.71;97.59;103276.97;4938354;29;19918;-66
2023/02/07 00:04:51;;;;;;;;;;;;;;;-1.75;96.96;103273.50;4905920;29;19911;-69
2023/02/07 00:07:18;;;;;;;;;;;;;;;-1.75;97.37;103270.88;4940307;29;19921;-67
2023/02/07 00:09:43;;;;;;;;;;;;;;;-1.75;97.29;103273.50;4937915;29;19914;-67
2023/02/07 00:12:08;;;;;;;;;;;;;;;-1.73;98.17;103279.59;4937360;29;20402;-68
2023/02/07 00:14:33;;;;;;;;;;;;;;;-1.69;97.58;103283.88;4937151;29;19999;-68
2023/02/07 00:16:59;;;;;;;;;;;;;;;-1.65;97.64;103288.19;4937364;29;19993;-69
2023/02/07 00:19:24;;;;;;;;;;;;;;;-1.62;97.79;103290.75;4937375;29;19917;-67
2023/02/07 00:21:49;;;;;;;;;;;;;;;-1.64;97.25;103283.81;4936910;29;19965;-69
2023/02/07 00:24:15;;;;;;;;;;;;;;;-1.72;97.37;103290.91;4937024;29;19910;-64
2023/02/07 00:26:40;;;;;;;;;;;;;;;-1.68;97.75;103287.34;4936894;29;19911;-68
2023/02/07 00:29:05;;;;;;;;;;;;;;;-1.66;97.62;103291.69;4937175;29;19911;-69
2023/02/07 00:31:32;;;;;;;;;;;;;;;-1.63;97.97;103299.47;4937005;29;19910;-69
2023/02/07 00:33:59;;;;;;;;;;;;;;;-1.65;98.29;103301.25;4936970;29;19938;-67
2023/02/07 00:36:26;;;;;;;;;;;;;;;-1.64;97.92;103300.34;4919711;29;19910;-68
2023/02/07 00:38:54;;;;;;;;;;;;;;;-1.61;97.58;103300.31;4936706;29;19958;-68
2023/02/07 00:41:20;;;;;;;;;;;;;;;-1.67;97.54;103297.78;4936493;29;20374;-66
2023/02/07 00:43:46;;;;;;;;;;;;;;;-1.75;97.29;103291.78;4919550;29;19910;-68
2023/02/07 00:46:11;;;;;;;;;;;;;;;-1.76;98.04;103292.66;4937169;29;19911;-69
2023/02/07 00:48:39;;;;;;;;;;;;;;;-1.69;98.09;103291.72;4938491;29;19911;-69
2023/02/07 00:51:05;;;;;;;;;;;;;;;-1.68;97.58;103288.22;4936906;29;19918;-70
2023/02/07 00:53:30;;;;;;;;;;;;;;;-1.68;97.68;103303.03;4936449;29;19910;-69
2023/02/07 00:55:55;;;;;;;;;;;;;;;-1.70;97.74;103300.44;4936186;29;19911;-70
2023/02/07 00:58:21;;;;;;;;;;;;;;;-1.70;97.53;103315.25;4936350;29;19910;-69
2023/02/07 01:00:46;;;;;;;;;;;;;;;-1.76;97.24;103310.97;4936435;29;19919;-70
2023/02/07 01:03:12;;;;;;;;;;;;;;;-1.77;96.97;103324.03;4935773;29;19915;-67
2023/02/07 01:05:37;;;;;;;;;;;;;;;-1.76;96.91;103315.31;4918999;29;19933;-67
2023/02/07 01:08:04;;;;;;;;;;;;;;;-1.80;97.01;103316.25;4936434;29;19950;-68
2023/02/07 01:10:30;;;;;;;;;;;;;;;-1.80;97.58;103317.13;4936033;29;19942;-66
2023/02/07 01:12:55;;;;;;;;;;;;;;;-1.79;97.66;103320.59;4903413;29;19910;-66
2023/02/07 01:15:21;;;;;;;;;;;;;;;-1.81;97.42;103327.59;4936143;29;19965;-68
2023/02/07 01:17:46;;;;;;;;;;;;;;;-1.85;97.21;103332.00;4936725;29;19911;-68
2023/02/07 01:20:11;;;;;;;;;;;;;;;-1.86;97.02;103330.25;4936469;29;19921;-66
2023/02/07 01:22:37;;;;;;;;;;;;;;;-1.85;97.59;103337.22;4936891;29;20367;-70
2023/02/07 01:25:03;;;;;;;;;;;;;;;-1.84;97.35;103341.56;4936426;29;20330;-67
2023/02/07 01:27:29;;;;;;;;;;;;;;;-1.76;97.76;103352.75;4936088;29;20356;-68
2023/02/07 01:29:54;;;;;;;;;;;;;;;-1.73;97.76;103352.75;4935838;29;19918;-65
2023/02/07 01:32:19;;;;;;;;;;;;;;;-1.77;97.28;103358.88;4935995;29;19961;-69
2023/02/07 01:34:45;;;;;;;;;;;;;;;-1.79;97.11;103363.25;4935674;29;19958;-68
2023/02/07 01:37:10;;;;;;;;;;;;;;;-1.78;97.38;103359.75;4919097;29;20005;-68
2023/02/07 01:39:35;;;;;;;;;;;;;;;-1.85;97.27;103357.25;4937472;29;20001;-69
2023/02/07 01:42:00;;;;;;;;;;;;;;;-1.86;97.65;103359.00;4919110;29;20387;-65
2023/02/07 01:44:26;;;;;;;;;;;;;;;-1.88;97.44;103368.59;4935902;29;19961;-66
2023/02/07 01:46:52;;;;;;;;;;;;;;;-1.88;97.24;103355.53;4935704;29;20405;-68
2023/02/07 01:49:20;;;;;;;;;;;;;;;-1.83;97.35;103358.09;4935620;29;19911;-69
2023/02/07 01:51:50;;;;;;;;;;;;;;;-1.80;97.47;103360.66;4935571;29;19958;-67
2023/02/07 01:54:17;;;;;;;;;;;;;;;-1.80;96.95;103360.66;4935428;29;19910;-67
2023/02/07 01:56:44;;;;;;;;;;;;;;;-1.82;97.11;103358.06;4935485;29;19961;-70
2023/02/07 01:59:10;;;;;;;;;;;;;;;-1.79;97.12;103358.03;4935294;29;19911;-69
2023/02/07 02:01:35;;;;;;;;;;;;;;;-1.78;97.04;103354.53;4935434;29;19937;-67
2023/02/07 02:04:01;;;;;;;;;;;;;;;-1.82;97.36;103355.47;4935639;29;19958;-70
2023/02/07 02:06:30;;;;;;;;;;;;;;;-1.83;97.10;103351.13;4935448;29;20370;-67
2023/02/07 02:08:57;;;;;;;;;;;;;;;-1.86;97.47;103348.53;4935487;29;20274;-69
2023/02/07 02:11:40;;;;;;;;;;;;;;;-1.92;97.07;103359.94;4935609;29;19914;-70
2023/02/07 02:14:38;;;;;;;;;;;;;;;-1.92;97.32;103359.94;4934576;29;19911;-70
2023/02/07 02:17:53;;;;;;;;;;;;;;;-1.87;96.85;103365.97;4912672;29;19917;-68
2023/02/07 02:20:31;;;;;;;;;;;;;;;-1.81;96.75;103372.00;4901106;29;19946;-67
2023/02/07 02:22:59;;;;;;;;;;;;;;;-1.83;96.82;103377.25;4936942;29;20314;-69
2023/02/07 02:25:25;;;;;;;;;;;;;;;-1.84;96.29;103380.72;4918057;29;19974;-70
2023/02/07 02:28:06;;;;;;;;;;;;;;;-1.94;96.59;103381.75;4935443;29;20370;-68
2023/02/07 02:30:52;;;;;;;;;;;;;;;-1.97;96.22;103381.78;4935240;29;20009;-70
2023/02/07 02:33:17;;;;;;;;;;;;;;;-2.04;97.25;103382.72;4921450;29;19958;-69
2023/02/07 02:35:53;;;;;;;;;;;;;;;-2.02;97.16;103387.06;4946931;29;19914;-70
2023/02/07 02:38:25;;;;;;;;;;;;;;;-1.99;97.41;103380.94;4911850;29;19958;-67
2023/02/07 02:40:54;;;;;;;;;;;;;;;-2.02;96.73;103378.38;4941997;29;19911;-66
2023/02/07 02:43:31;;;;;;;;;;;;;;;-2.05;97.22;103381.84;4926377;29;19963;-69
2023/02/07 02:46:01;;;;;;;;;;;;;;;-2.05;98.10;103388.81;4908004;29;19961;-67
2023/02/07 02:48:28;;;;;;;;;;;;;;;-2.07;98.14;103399.28;4924705;29;20050;-69
2023/02/07 02:51:00;;;;;;;;;;;;;;;-2.04;97.90;103409.69;4908257;29;19917;-65
2023/02/07 02:53:29;;;;;;;;;;;;;;;-2.00;97.82;103413.16;4911664;29;19915;-67
2023/02/07 02:56:01;;;;;;;;;;;;;;;-2.00;98.00;103410.53;4926132;29;19911;-66
2023/02/07 02:58:35;;;;;;;;;;;;;;;-2.02;97.84;103412.31;4941905;29;19910;-69
2023/02/07 03:01:07;;;;;;;;;;;;;;;-2.05;97.81;103417.53;4936678;29;19966;-70
2023/02/07 03:03:33;;;;;;;;;;;;;;;-2.05;97.81;103428.84;4928874;29;19914;-66
2023/02/07 03:06:07;;;;;;;;;;;;;;;-2.09;97.87;103410.63;4927121;29;19921;-68
2023/02/07 03:08:46;;;;;;;;;;;;;;;-2.12;97.86;103421.09;4926598;29;19918;-67
2023/02/07 03:11:16;;;;;;;;;;;;;;;-2.17;98.07;103428.13;4928414;29;19911;-67
2023/02/07 03:13:42;;;;;;;;;;;;;;;-2.20;98.06;103416.84;4927809;29;19919;-69
2023/02/07 03:16:27;;;;;;;;;;;;;;;-2.22;98.24;103421.22;4941617;29;19911;-70
2023/02/07 03:18:58;;;;;;;;;;;;;;;-2.22;98.25;103416.00;4942261;29;19910;-65
2023/02/07 03:21:27;;;;;;;;;;;;;;;-2.16;97.98;103395.91;4942888;29;20364;-69
2023/02/07 03:23:57;;;;;;;;;;;;;;;-2.13;98.05;103393.28;4941330;29;19945;-68
2023/02/07 03:26:23;;;;;;;;;;;;;;;-2.15;97.36;103402.88;4910695;29;19921;-69
2023/02/07 03:28:53;;;;;;;;;;;;;;;-2.26;97.35;103395.16;4948414;29;19939;-66
2023/02/07 03:31:21;;;;;;;;;;;;;;;-2.23;98.55;103393.38;4949632;29;19934;-66
2023/02/07 03:33:48;;;;;;;;;;;;;;;-2.20;98.56;103395.94;4915499;29;19914;-69
2023/02/07 03:36:37;;;;;;;;;;;;;;;-2.15;98.54;103400.25;4928859;29;19921;-68
2023/02/07 03:39:02;;;;;;;;;;;;;;;-2.28;98.23;103402.16;4935614;29;19910;-70
2023/02/07 03:41:32;;;;;;;;;;;;;;;-2.26;99.10;103413.44;4937814;29;20243;-70
2023/02/07 03:43:59;;;;;;;;;;;;;;;-2.31;98.98;103413.47;4937866;29;19954;-68
2023/02/07 03:46:25;;;;;;;;;;;;;;;-2.31;98.92;103418.72;4937665;29;19911;-71
2023/02/07 03:48:50;;;;;;;;;;;;;;;-2.31;99.64;103418.72;4937705;29;20367;-68
2023/02/07 03:51:15;;;;;;;;;;;;;;;-2.33;99.21;103420.44;4937752;29;19910;-72
2023/02/07 03:53:41;;;;;;;;;;;;;;;-2.40;99.00;103429.22;4937487;29;19910;-68
2023/02/07 03:56:06;;;;;;;;;;;;;;;-2.40;99.92;103425.75;4937687;29;19919;-68
2023/02/07 03:58:31;;;;;;;;;;;;;;;-2.36;99.64;103417.84;4937809;29;20330;-69
2023/02/07 04:00:57;;;;;;;;;;;;;;;-2.29;99.49;103416.06;4937500;29;19958;-67
2023/02/07 04:03:22;;;;;;;;;;;;;;;-2.26;99.71;103414.31;4937594;29;20000;-66
2023/02/07 04:05:48;;;;;;;;;;;;;;;-2.23;99.34;103414.25;4937913;29;19957;-68
2023/02/07 04:08:14;;;;;;;;;;;;;;;-2.21;99.02;103411.63;4942888;29;19937;-68
2023/02/07 04:10:39;;;;;;;;;;;;;;;-2.15;98.94;103408.09;4941815;29;19911;-70
2023/02/07 04:13:04;;;;;;;;;;;;;;;-2.16;98.97;103417.66;4920577;29;19914;-68
2023/02/07 04:15:30;;;;;;;;;;;;;;;-2.14;99.74;103409.81;4920120;29;19911;-66
2023/02/07 04:17:55;;;;;;;;;;;;;;;-2.17;99.87;103415.06;4936740;29;19910;-68
2023/02/07 04:20:20;;;;;;;;;;;;;;;-2.20;99.84;103418.59;4937219;29;19917;-71
2023/02/07 04:22:46;;;;;;;;;;;;;;;-2.21;99.41;103415.09;4937139;29;19911;-69
2023/02/07 04:25:11;;;;;;;;;;;;;;;-2.22;98.88;103418.59;4937371;29;20283;-69
2023/02/07 04:27:37;;;;;;;;;;;;;;;-2.36;98.70;103414.38;4936923;29;20351;-68
2023/02/07 04:30:03;;;;;;;;;;;;;;;-2.52;99.53;103421.50;4937219;29;19918;-68
2023/02/07 04:32:29;;;;;;;;;;;;;;;-2.55;100.00;103416.31;4920290;29;19911;-68
2023/02/07 04:34:54;;;;;;;;;;;;;;;-2.55;99.76;103416.31;4936473;29;19921;-68
2023/02/07 04:37:19;;;;;;;;;;;;;;;-2.50;100.00;103419.75;4935791;29;20012;-68
2023/02/07 04:39:45;;;;;;;;;;;;;;;-2.53;99.99;103409.34;4936831;29;19918;-64
2023/02/07 04:42:11;;;;;;;;;;;;;;;-2.53;100.00;103415.44;4936779;29;19954;-66
2023/02/07 04:44:36;;;;;;;;;;;;;;;-2.46;100.00;103416.22;4936667;29;19911;-66
2023/02/07 04:47:01;;;;;;;;;;;;;;;-2.46;100.00;103411.00;4919567;29;19910;-64
2023/02/07 04:49:27;;;;;;;;;;;;;;;-2.57;100.00;103410.25;4936410;29;19961;-65
2023/02/07 04:51:52;;;;;;;;;;;;;;;-2.67;100.00;103403.38;4919691;29;19921;-64
2023/02/07 04:54:17;;;;;;;;;;;;;;;-2.69;100.00;103415.56;4936403;29;19910;-64
2023/02/07 04:56:43;;;;;;;;;;;;;;;-2.70;100.00;103411.22;4936216;29;19911;-65
2023/02/07 04:59:08;;;;;;;;;;;;;;;-2.74;100.00;103422.56;4918807;29;19911;-62
2023/02/07 05:01:33;;;;;;;;;;;;;;;-2.77;100.00;103425.19;4936156;29;19942;-65
2023/02/07 05:03:58;;;;;;;;;;;;;;;-2.81;100.00;103412.19;4936297;29;20374;-65
2023/02/07 05:06:24;;;;;;;;;;;;;;;-2.85;100.00;103418.31;4936200;29;19919;-64
2023/02/07 05:08:49;;;;;;;;;;;;;;;-2.84;100.00;103417.44;4936206;29;20013;-64
2023/02/07 05:11:15;;;;;;;;;;;;;;;-2.87;100.00;103420.06;4935915;29;19973;-67
2023/02/07 05:13:40;;;;;;;;;;;;;;;-2.85;100.00;103417.44;4918738;29;19940;-66
2023/02/07 05:16:06;;;;;;;;;;;;;;;-2.84;100.00;103414.81;4936054;29;19910;-65
2023/02/07 05:18:31;;;;;;;;;;;;;;;-2.81;100.00;103409.56;4941097;29;19953;-63
2023/02/07 05:20:56;;;;;;;;;;;;;;;-2.70;100.00;103411.22;4940180;29;19911;-64
2023/02/07 05:23:22;;;;;;;;;;;;;;;-2.61;100.00;103418.97;4936993;29;19918;-68
2023/02/07 05:25:49;;;;;;;;;;;;;;;-2.58;100.00;103419.81;4935991;29;20375;-68
2023/02/07 05:28:24;;;;;;;;;;;;;;;-2.51;100.00;103410.19;4936212;29;19957;-75
2023/02/07 05:30:54;;;;;;;;;;;;;;;-2.46;100.00;103411.00;4903290;29;19978;-70
2023/02/07 05:33:19;;;;;;;;;;;;;;;-2.51;100.00;103407.59;4936345;29;19918;-73
2023/02/07 05:35:45;;;;;;;;;;;;;;;-2.57;100.00;103402.44;4935689;29;19911;-69
2023/02/07 05:38:14;;;;;;;;;;;;;;;-2.53;100.00;103409.34;4935400;29;20028;-70
2023/02/07 05:40:42;;;;;;;;;;;;;;;-2.63;100.00;103407.66;4918959;29;20018;-67
2023/02/07 05:43:08;;;;;;;;;;;;;;;-2.64;100.00;103405.94;4935975;29;19911;-68
2023/02/07 05:45:34;;;;;;;;;;;;;;;-2.60;100.00;103403.31;4935245;29;19910;-74
2023/02/07 05:48:00;;;;;;;;;;;;;;;-2.54;100.00;103402.41;4935540;29;19977;-68
2023/02/07 05:50:25;;;;;;;;;;;;;;;-2.49;100.00;103411.03;4918360;29;19957;-68
2023/02/07 05:52:57;;;;;;;;;;;;;;;-2.47;100.00;103404.06;4918527;29;19997;-68
2023/02/07 05:55:22;;;;;;;;;;;;;;;-2.51;100.00;103408.44;4935888;29;19910;-67
2023/02/07 05:57:47;;;;;;;;;;;;;;;-2.46;100.00;103411.00;4936628;29;19910;-66
2023/02/07 06:00:14;;;;;;;;;;;;;;;-2.45;100.00;103411.88;4936441;29;19911;-69
2023/02/07 06:02:40;;;;;;;;;;;;;;;-2.46;100.00;103418.84;4937875;29;19911;-66
2023/02/07 06:05:13;;;;;;;;;;;;;;;-2.44;100.00;103424.91;4937497;29;19911;-64
2023/02/07 06:07:39;;;;;;;;;;;;;;;-2.46;100.00;103421.44;4936809;29;19922;-67
2023/02/07 06:10:05;;;;;;;;;;;;;;;-2.45;100.00;103428.41;4918364;29;19962;-69
2023/02/07 06:12:30;;;;;;;;;;;;;;;-2.56;100.00;103422.41;4917918;29;20430;-68
2023/02/07 06:14:56;;;;;;;;;;;;;;;-2.58;100.00;103426.78;4935212;29;20303;-65
2023/02/07 06:17:21;;;;;;;;;;;;;;;-2.48;100.00;103438.88;4918160;29;19911;-65
2023/02/07 06:19:50;;;;;;;;;;;;;;;-2.43;100.00;103455.34;4936034;29;19946;-71
2023/02/07 06:22:54;;;;;;;;;;;;;;;-2.50;100.00;103451.94;4925002;29;20430;-68
2023/02/07 06:25:38;;;;;;;;;;;;;;;-2.63;100.00;103444.19;4920630;29;19997;-68
2023/02/07 06:28:05;;;;;;;;;;;;;;;-2.70;100.00;103442.53;4938135;29;19914;-68
2023/02/07 06:30:31;;;;;;;;;;;;;;;-2.83;100.00;103440.03;4940619;29;20318;-63
2023/02/07 06:32:56;;;;;;;;;;;;;;;-2.81;100.00;103440.88;4942940;29;19949;-63
2023/02/07 06:35:23;;;;;;;;;;;;;;;-2.84;100.00;103440.91;4943375;29;19915;-63
2023/02/07 06:37:48;;;;;;;;;;;;;;;-2.77;100.00;103438.25;4927328;29;19932;-66
2023/02/07 06:40:14;;;;;;;;;;;;;;;-2.66;100.00;103439.88;4943924;29;19965;-64
2023/02/07 06:42:39;;;;;;;;;;;;;;;-2.66;100.00;103449.44;4929173;29;19954;-63
2023/02/07 06:45:05;;;;;;;;;;;;;;;-2.63;100.00;103459.84;4913730;29;19914;-68
2023/02/07 06:47:31;;;;;;;;;;;;;;;-2.58;100.00;103473.75;4943080;29;19918;-68
2023/02/07 06:49:56;;;;;;;;;;;;;;;-2.54;100.00;103463.28;4909695;29;20017;-66
2023/02/07 06:52:22;;;;;;;;;;;;;;;-2.55;100.00;103463.28;4946161;29;19910;-75
2023/02/07 06:54:47;;;;;;;;;;;;;;;-2.45;100.00;103464.94;4946896;29;19911;-74
2023/02/07 06:57:13;;;;;;;;;;;;;;;-2.38;100.00;103474.44;4934519;29;19910;-71
2023/02/07 06:59:38;;;;;;;;;;;;;;;-2.36;100.00;103472.66;4914876;29;19917;-69
2023/02/07 07:02:04;;;;;;;;;;;;;;;-2.31;100.00;103470.91;4951921;29;19911;-70
2023/02/07 07:04:29;;;;;;;;;;;;;;;-2.52;99.68;103466.72;4949268;29;19910;-69
2023/02/07 07:06:55;;;;;;;;;;;;;;;-2.60;100.00;103465.06;4950707;29;19922;-69
2023/02/07 07:09:21;;;;;;;;;;;;;;;-2.53;100.00;103454.56;4954415;29;19915;-71
2023/02/07 07:11:46;;;;;;;;;;;;;;;-2.51;100.00;103444.13;4917040;29;19926;-69
2023/02/07 07:14:15;;;;;;;;;;;;;;;-2.50;100.00;103453.66;4933559;29;19922;-68
2023/02/07 07:16:40;;;;;;;;;;;;;;;-2.42;100.00;103450.97;4929542;29;19918;-71
2023/02/07 07:19:06;;;;;;;;;;;;;;;-2.54;99.92;103451.97;4932785;29;19910;-68
2023/02/07 07:21:31;;;;;;;;;;;;;;;-2.53;100.00;103466.75;4915886;29;20271;-68
2023/02/07 07:23:57;;;;;;;;;;;;;;;-2.54;100.00;103460.66;4934379;29;19966;-69
2023/02/07 07:26:22;;;;;;;;;;;;;;;-2.60;99.46;103465.94;4932557;29;20009;-72
2023/02/07 07:28:48;;;;;;;;;;;;;;;-2.52;100.00;103468.47;4932599;29;19958;-71
2023/02/07 07:31:13;;;;;;;;;;;;;;;-2.43;99.94;103471.00;4955630;29;19910;-72
2023/02/07 07:33:39;;;;;;;;;;;;;;;-2.38;100.00;103470.94;4936624;29;19911;-69
2023/02/07 07:36:05;;;;;;;;;;;;;;;-2.58;98.92;103469.41;4933178;29;19918;-73
2023/02/07 07:38:36;;;;;;;;;;;;;;;-2.67;100.00;103465.97;4957354;29;19906;-69
2023/02/07 07:41:01;;;;;;;;;;;;;;;-2.59;100.00;103466.81;4935037;29;19911;-69
2023/02/07 07:43:26;;;;;;;;;;;;;;;-2.44;100.00;103461.44;4951968;29;19911;-71
2023/02/07 07:45:53;;;;;;;;;;;;;;;-2.42;99.33;103454.47;4921469;29;19910;-69
2023/02/07 07:48:19;;;;;;;;;;;;;;;-2.46;98.56;103457.97;4932716;29;19915;-68
2023/02/07 07:50:45;;;;;;;;;;;;;;;-2.58;99.52;103447.66;4930474;29;19911;-71
2023/02/07 07:53:10;;;;;;;;;;;;;;;-2.55;99.85;103456.31;4930541;29;19917;-71
2023/02/07 07:55:37;;;;;;;;;;;;;;;-2.68;99.74;103459.03;4948428;29;19910;-70
2023/02/07 07:58:02;;;;;;;;;;;;;;;-2.74;100.00;103449.50;4953750;29;19946;-70
2023/02/07 08:00:28;;;;;;;;;;;;;;;-2.64;100.00;103452.91;4951183;29;20390;-71
2023/02/07 08:02:53;;;;;;;;;;;;;;;-2.71;100.00;103451.22;4931716;29;19915;-71
2023/02/07 08:05:19;;;;;;;;;;;;;;;-2.74;100.00;103456.47;4949237;29;19915;-70
2023/02/07 08:07:47;;;;;;;;;;;;;;;-2.67;100.00;103460.75;4932672;29;20414;-70
2023/02/07 08:10:12;;;;;;;;;;;;;;;-2.58;100.00;103464.19;4947843;29;19915;-68
2023/02/07 08:12:38;;;;;;;;;;;;;;;-2.52;100.00;103456.28;4927709;29;20365;-69
2023/02/07 08:15:03;;;;;;;;;;;;;;;-2.54;100.00;103470.22;4942842;29;19911;-68
2023/02/07 08:17:30;;;;;;;;;;;;;;;-2.50;100.00;103464.09;4948591;29;19917;-67
2023/02/07 08:19:55;;;;;;;;;;;;;;;-2.43;100.00;103462.31;4947971;29;20027;-71
2023/02/07 08:22:21;;;;;;;;;;;;;;;-2.38;100.00;103455.28;4929466;29;19946;-69
2023/02/07 08:24:46;;;;;;;;;;;;;;;-2.44;100.00;103450.13;4941740;29;19950;-72
2023/02/07 08:27:12;;;;;;;;;;;;;;;-2.45;99.89;103446.66;4948495;29;19910;-70
2023/02/07 08:29:38;;;;;;;;;;;;;;;-2.41;100.00;103450.97;4914549;29;20021;-68
2023/02/07 08:32:04;;;;;;;;;;;;;;;-2.45;99.60;103451.88;4920224;29;19917;-72
2023/02/07 08:34:35;;;;;;;;;;;;;;;-2.30;100.00;103454.38;4908290;29;19910;-69
2023/02/07 08:37:01;;;;;;;;;;;;;;;-2.17;99.66;103455.09;4946850;29;19966;-70
2023/02/07 08:39:27;;;;;;;;;;;;;;;-2.06;99.55;103442.78;4937396;29;19950;-66
2023/02/07 08:41:52;;;;;;;;;;;;;;;-2.01;98.74;103448.00;4942085;29;19915;-67
2023/02/07 08:44:17;;;;;;;;;;;;;;;-1.99;97.53;103438.38;4917503;29;19954;-71
2023/02/07 08:46:43;;;;;;;;;;;;;;;-1.91;97.57;103436.56;4930732;29;19923;-67
2023/02/07 08:49:08;;;;;;;;;;;;;;;-1.84;96.77;103432.97;4938511;29;19910;-69
2023/02/07 08:51:37;;;;;;;;;;;;;;;-1.74;96.95;103433.72;4926159;29;19915;-68
2023/02/07 08:54:02;;;;;;;;;;;;;;;-1.65;96.79;103434.50;4941631;29;20355;-66
2023/02/07 08:56:28;;;;;;;;;;;;;;;-1.65;96.30;103431.88;4944483;29;19919;-71
2023/02/07 08:58:53;;;;;;;;;;;;;;;-1.58;97.02;103430.91;4924441;29;19911;-70
2023/02/07 09:01:19;;;;;;;;;;;;;;;-1.50;96.62;103443.88;4922989;29;19911;-67
2023/02/07 09:03:44;;;;;;;;;;;;;;;-1.50;95.24;103443.88;4944680;29;19911;-66
2023/02/07 09:06:10;;;;;;;;;;;;;;;-1.46;96.05;103444.69;4940986;29;19915;-69
2023/02/07 09:08:35;;;;;;;;;;;;;;;-1.53;93.99;103443.91;4927179;29;19919;-70
2023/02/07 09:11:01;;;;;;;;;;;;;;;-1.56;94.96;103438.72;4937311;29;19921;-68
2023/02/07 09:13:26;;;;;;;;;;;;;;;-1.54;94.35;103436.09;4940665;29;20074;-68
2023/02/07 09:15:57;;;;;;;;;;;;;;;-1.63;94.36;103443.19;4924284;29;19911;-68
2023/02/07 09:18:24;;;;;;;;;;;;;;;-1.62;95.57;103444.91;4926950;29;19915;-70
2023/02/07 09:20:51;;;;;;;;;;;;;;;-1.71;94.87;103439.81;4924804;29;19911;-72
2023/02/07 09:23:16;;;;;;;;;;;;;;;-1.62;95.20;103439.69;4904911;29;19917;-68
2023/02/07 09:25:42;;;;;;;;;;;;;;;-1.45;95.11;103435.97;4918866;29;20299;-68
2023/02/07 09:28:08;;;;;;;;;;;;;;;-1.31;94.67;103441.91;4943073;29;19926;-71
2023/02/07 09:30:34;;;;;;;;;;;;;;;-1.13;94.83;103435.56;4935511;29;19941;-69
2023/02/07 09:33:00;;;;;;;;;;;;;;;-0.95;94.89;103428.28;4948482;29;19977;-69
2023/02/07 09:35:25;;;;;;;;;;;;;;;-0.79;94.60;103433.28;4939829;29;20367;-68
2023/02/07 09:37:56;;;;;;;;;;;;;;;-0.84;92.09;103424.66;4949304;29;19910;-67
2023/02/07 09:40:28;;;;;;;;;;;;;;;-0.91;92.35;103428.22;4945592;29;19918;-68
2023/02/07 09:43:02;;;;;;;;;;;;;;;-0.94;92.69;103435.25;4928175;29;19932;-68
2023/02/07 09:45:30;;;;;;;;;;;;;;;-0.94;93.11;103434.38;4927156;29;19914;-68
2023/02/07 09:48:02;;;;;;;;;;;;;;;-0.92;93.31;103440.44;4909595;29;19957;-71
2023/02/07 09:50:30;;;;;;;;;;;;;;;-0.91;93.16;103433.47;4945318;29;19911;-68
2023/02/07 09:52:58;;;;;;;;;;;;;;;-0.79;93.96;103438.53;4923724;29;19917;-69
2023/02/07 09:55:39;;;;;;;;;;;;;;;-0.66;93.94;103430.44;4907965;29;19911;-68
2023/02/07 09:58:13;;;;;;;;;;;;;;;-0.49;92.99;103426.69;4910898;29;19910;-71
2023/02/07 10:00:41;;;;;;;;;;;;;;;-0.55;91.67;103427.66;4923531;29;20305;-69
2023/02/07 10:03:25;;;;;;;;;;;;;;;-0.63;91.77;103435.63;4939456;29;20363;-68
2023/02/07 10:06:05;;;;;;;;;;;;;;;-0.54;92.01;103429.38;4907671;29;20021;-72
2023/02/07 10:08:35;;;;;;;;;;;;;;;-0.51;91.16;103428.47;4906854;29;19955;-71
2023/02/07 10:11:01;;;;;;;;;;;;;;;-0.52;91.12;103431.97;4918480;29;20355;-71
2023/02/07 10:13:45;;;;;;;;;;;;;;;-0.68;91.39;103420.88;4935923;29;19917;-70
2023/02/07 10:16:10;;;;;;;;;;;;;;;-0.66;92.24;103432.19;4902366;29;19911;-70
2023/02/07 10:18:39;;;;;;;;;;;;;;;-0.54;92.62;103432.00;4918369;29;20319;-68
2023/02/07 10:21:04;;;;;;;;;;;;;;;-0.34;92.57;103435.13;4935095;29;19966;-68
2023/02/07 10:23:39;;;;;;;;;;;;;;;-0.21;92.17;103427.06;4918221;29;19910;-70
2023/02/07 10:26:42;;;;;;;;;;;;;;;-0.12;92.27;103426.88;4935344;29;20276;-71
2023/02/07 10:29:23;;;;;;;;;;;;;;;-0.21;90.61;103434.91;4894918;29;19926;-69
2023/02/07 10:31:51;;;;;;;;;;;;;;;-0.08;91.64;103425.91;4895336;29;19916;-68
2023/02/07 10:34:23;;;;;;;;;;;;;;;-0.07;90.31;103425.88;4918445;29;19966;-68
2023/02/07 10:36:50;;;;;;;;;;;;;;;-0.19;90.04;103422.66;4937701;29;19911;-69
2023/02/07 10:39:24;;;;;;;;;;;;;;;-0.24;90.99;103424.50;4938829;29;19911;-70
2023/02/07 10:41:54;;;;;;;;;;;;;;;-0.13;90.75;103412.06;4939104;29;19933;-69
2023/02/07 10:44:20;;;;;;;;;;;;;;;-0.11;90.08;103402.41;4939044;29;19910;-68
2023/02/07 10:46:49;;;;;;;;;;;;;;;-0.15;90.08;103406.84;4938893;29;19974;-69
2023/02/07 10:49:21;;;;;;;;;;;;;;;-0.13;90.75;103404.19;4938529;29;19911;-69
2023/02/07 10:51:47;;;;;;;;;;;;;;;-0.03;90.70;103400.50;4938712;29;19918;-71
2023/02/07 10:54:15;;;;;;;;;;;;;;;-0.08;89.94;103403.22;4939027;29;19915;-70
2023/02/07 10:56:43;;;;;;;;;;;;;;;-0.19;90.46;103397.31;4938764;29;19966;-70
2023/02/07 10:59:28;;;;;;;;;;;;;;;-0.23;90.98;103400.91;4938754;29;19918;-68
2023/02/07 11:01:54;;;;;;;;;;;;;;;-0.16;91.38;103393.78;4938826;29;20387;-69
2023/02/07 11:04:32;;;;;;;;;;;;;;;-0.16;91.10;103396.41;4938825;29;19918;-69
2023/02/07 11:07:01;;;;;;;;;;;;;;;-0.30;91.10;103388.78;4922167;29;19915;-67
2023/02/07 11:09:27;;;;;;;;;;;;;;;-0.45;91.42;103392.56;4940098;29;19914;-68
2023/02/07 11:11:53;;;;;;;;;;;;;;;-0.52;92.52;103390.94;4938966;29;19915;-71
2023/02/07 11:14:25;;;;;;;;;;;;;;;-0.54;92.71;103389.25;4940989;29;20359;-71
2023/02/07 11:16:52;;;;;;;;;;;;;;;-0.52;92.84;103406.66;4941994;29;19918;-70
2023/02/07 11:19:19;;;;;;;;;;;;;;;-0.47;93.07;103401.34;4957766;29;19914;-69
2023/02/07 11:21:47;;;;;;;;;;;;;;;-0.50;93.00;103394.41;4958061;29;20350;-70
2023/02/07 11:24:20;;;;;;;;;;;;;;;-0.57;92.96;103395.41;4941328;29;19910;-71
2023/02/07 11:26:58;;;;;;;;;;;;;;;-0.60;93.32;103398.06;4957838;29;19911;-70
2023/02/07 11:29:24;;;;;;;;;;;;;;;-0.54;93.75;103387.50;4957442;29;19914;-68
2023/02/07 11:31:51;;;;;;;;;;;;;;;-0.47;93.18;103391.72;4957326;29;19914;-69
2023/02/07 11:34:22;;;;;;;;;;;;;;;-0.59;93.53;103399.78;4957010;29;19954;-69
2023/02/07 11:36:48;;;;;;;;;;;;;;;-0.60;93.78;103399.81;4957120;29;19958;-67
2023/02/07 11:39:15;;;;;;;;;;;;;;;-0.62;93.81;103391.97;4957274;29;19910;-68
2023/02/07 11:41:40;;;;;;;;;;;;;;;-0.57;93.91;103384.94;4957173;29;20256;-67
2023/02/07 11:44:14;;;;;;;;;;;;;;;-0.56;94.15;103384.06;4957087;29;19965;-69
2023/02/07 11:46:42;;;;;;;;;;;;;;;-0.47;94.33;103385.63;4955780;28;19910;-69
2023/02/07 11:49:28;;;;;;;;;;;;;;;-0.43;94.22;103396.00;4956888;29;19914;-68
2023/02/07 11:51:55;;;;;;;;;;;;;;;-0.45;93.08;103395.19;4956362;29;20378;-67
2023/02/07 11:54:21;;;;;;;;;;;;;;;-0.38;93.53;103394.16;4956991;29;19973;-67
2023/02/07 11:57:00;;;;;;;;;;;;;;;-0.34;93.37;103393.22;4956761;29;19910;-67
2023/02/07 11:59:31;;;;;;;;;;;;;;;-0.35;93.42;103388.88;4956698;29;20004;-68
2023/02/07 12:01:57;;;;;;;;;;;;;;;-0.31;93.64;103384.44;4956640;29;19937;-69
2023/02/07 12:04:40;;;;;;;;;;;;;;;-0.20;93.51;103386.88;4956461;29;19910;-68
2023/02/07 12:07:19;;;;;;;;;;;;;;;-0.10;93.23;103377.94;4956554;29;19914;-67
2023/02/07 12:09:53;;;;;;;;;;;;;;;-0.13;92.51;103386.72;4956522;29;19918;-68
2023/02/07 12:12:21;;;;;;;;;;;;;;;-0.26;93.08;103381.75;4956357;29;20271;-67
2023/02/07 12:14:55;;;;;;;;;;;;;;;-0.37;93.46;103385.44;4956339;29;20277;-74
2023/02/07 12:17:32;;;;;;;;;;;;;;;-0.31;94.17;103395.78;4956369;29;19965;-72
2023/02/07 12:20:03;;;;;;;;;;;;;;;-0.22;94.15;103400.00;4956267;29;19917;-72
2023/02/07 12:22:33;;;;;;;;;;;;;;;-0.16;93.38;103404.25;4956660;29;19911;-69
2023/02/07 12:25:04;;;;;;;;;;;;;;;-0.17;93.41;103399.91;4955926;29;19917;-69
2023/02/07 12:27:34;;;;;;;;;;;;;;;-0.28;93.07;103399.25;4957180;29;19910;-70
2023/02/07 12:30:02;;;;;;;;;;;;;;;-0.40;93.59;103395.97;4963910;29;19918;-68
2023/02/07 12:32:49;;;;;;;;;;;;;;;-0.45;93.99;103392.56;4961052;29;20302;-72
2023/02/07 12:35:27;;;;;;;;;;;;;;;-0.43;93.83;103379.44;4928303;29;19933;-70
2023/02/07 12:38:01;;;;;;;;;;;;;;;-0.40;93.75;103377.63;4958282;29;19933;-69